sensor_id;sensor_type;location;lat;lon;timestamp;P1;durP1;ratioP1;P2;durP2;ratioP2
33413;SDS011;60055;41.884;12.534;2023-06-14T00:00:45;7.20;;;4.45;;
33413;SDS011;60055;41.884;12.534;2023-06-14T00:03:11;5.85;;;3.90;;
33413;SDS011;60055;41.884;12.534;2023-06-14T00:05:39;8.80;;;4.18;;
33413;SDS011;60055;41.884;12.534;2023-06-14T00:08:10;7.53;;;4.00;;
33413;SDS011;60055;41.884;12.534;2023-06-14T00:10:39;7.45;;;4.30;;
33413;SDS011;60055;41.884;12.534;2023-06-14T00:13:06;8.25;;;4.18;;
33413;SDS011;60055;41.884;12.534;2023-06-14T00:15:33;9.80;;;4.25;;
33413;SDS011;60055;41.884;12.534;2023-06-14T00:17:59;6.55;;;4.15;;
33413;SDS011;60055;41.884;12.534;2023-06-14T00:20:29;8.05;;;4.03;;
33413;SDS011;60055;41.884;12.534;2023-06-14T00:22:59;7.00;;;4.40;;
33413;SDS011;60055;41.884;12.534;2023-06-14T00:25:25;10.15;;;4.20;;
33413;SDS011;60055;41.884;12.534;2023-06-14T00:27:51;7.10;;;3.97;;
33413;SDS011;60055;41.884;12.534;2023-06-14T00:30:17;8.80;;;4.53;;
33413;SDS011;60055;41.884;12.534;2023-06-14T00:32:43;9.50;;;4.38;;
33413;SDS011;60055;41.884;12.534;2023-06-14T00:35:10;7.57;;;4.30;;
33413;SDS011;60055;41.884;12.534;2023-06-14T00:37:36;7.80;;;4.45;;
33413;SDS011;60055;41.884;12.534;2023-06-14T00:40:02;9.50;;;5.00;;
33413;SDS011;60055;41.884;12.534;2023-06-14T00:42:29;7.55;;;4.82;;
33413;SDS011;60055;41.884;12.534;2023-06-14T00:44:55;9.55;;;4.63;;
33413;SDS011;60055;41.884;12.534;2023-06-14T00:47:20;5.47;;;4.50;;
33413;SDS011;60055;41.884;12.534;2023-06-14T00:49:46;7.55;;;4.57;;
33413;SDS011;60055;41.884;12.534;2023-06-14T00:52:15;7.82;;;4.15;;
33413;SDS011;60055;41.884;12.534;2023-06-14T00:54:42;8.38;;;4.78;;
33413;SDS011;60055;41.884;12.534;2023-06-14T00:57:11;7.22;;;4.25;;
33413;SDS011;60055;41.884;12.534;2023-06-14T00:59:38;7.32;;;3.95;;
33413;SDS011;60055;41.884;12.534;2023-06-14T01:02:07;6.82;;;3.97;;
33413;SDS011;60055;41.884;12.534;2023-06-14T01:04:33;6.72;;;4.35;;
33413;SDS011;60055;41.884;12.534;2023-06-14T01:07:10;8.57;;;4.00;;
33413;SDS011;60055;41.884;12.534;2023-06-14T01:12:39;5.68;;;3.63;;
33413;SDS011;60055;41.884;12.534;2023-06-14T01:15:11;6.00;;;3.60;;
33413;SDS011;60055;41.884;12.534;2023-06-14T01:17:37;5.72;;;3.35;;
33413;SDS011;60055;41.884;12.534;2023-06-14T01:20:07;6.90;;;3.58;;
33413;SDS011;60055;41.884;12.534;2023-06-14T01:22:37;7.35;;;3.50;;
33413;SDS011;60055;41.884;12.534;2023-06-14T01:25:08;6.00;;;3.80;;
33413;SDS011;60055;41.884;12.534;2023-06-14T01:27:33;5.65;;;3.53;;
33413;SDS011;60055;41.884;12.534;2023-06-14T01:29:59;6.38;;;3.78;;
33413;SDS011;60055;41.884;12.534;2023-06-14T01:32:27;4.53;;;3.75;;
33413;SDS011;60055;41.884;12.534;2023-06-14T01:34:54;11.43;;;3.83;;
33413;SDS011;60055;41.884;12.534;2023-06-14T01:37:20;7.45;;;3.42;;
33413;SDS011;60055;41.884;12.534;2023-06-14T01:39:47;5.10;;;3.08;;
33413;SDS011;60055;41.884;12.534;2023-06-14T01:42:14;6.95;;;3.33;;
33413;SDS011;60055;41.884;12.534;2023-06-14T01:44:42;6.43;;;3.00;;
33413;SDS011;60055;41.884;12.534;2023-06-14T01:47:08;4.90;;;3.25;;
33413;SDS011;60055;41.884;12.534;2023-06-14T01:49:34;4.93;;;3.38;;
33413;SDS011;60055;41.884;12.534;2023-06-14T01:52:00;6.85;;;3.10;;
33413;SDS011;60055;41.884;12.534;2023-06-14T01:54:26;6.68;;;3.10;;
33413;SDS011;60055;41.884;12.534;2023-06-14T01:56:52;5.45;;;3.20;;
33413;SDS011;60055;41.884;12.534;2023-06-14T01:59:18;7.13;;;3.28;;
33413;SDS011;60055;41.884;12.534;2023-06-14T02:01:43;4.38;;;2.97;;
33413;SDS011;60055;41.884;12.534;2023-06-14T02:04:11;8.15;;;3.15;;
33413;SDS011;60055;41.884;12.534;2023-06-14T02:06:36;5.88;;;3.17;;
33413;SDS011;60055;41.884;12.534;2023-06-14T02:09:02;5.95;;;2.80;;
33413;SDS011;60055;41.884;12.534;2023-06-14T02:11:28;4.60;;;2.53;;
33413;SDS011;60055;41.884;12.534;2023-06-14T02:13:53;4.72;;;3.05;;
33413;SDS011;60055;41.884;12.534;2023-06-14T02:16:20;4.57;;;2.75;;
33413;SDS011;60055;41.884;12.534;2023-06-14T02:18:45;4.35;;;2.78;;
33413;SDS011;60055;41.884;12.534;2023-06-14T02:21:11;5.60;;;3.15;;
33413;SDS011;60055;41.884;12.534;2023-06-14T02:23:36;5.72;;;3.20;;
33413;SDS011;60055;41.884;12.534;2023-06-14T02:26:02;5.15;;;3.05;;
33413;SDS011;60055;41.884;12.534;2023-06-14T02:28:27;7.70;;;2.90;;
33413;SDS011;60055;41.884;12.534;2023-06-14T02:30:53;7.55;;;3.38;;
33413;SDS011;60055;41.884;12.534;2023-06-14T02:33:18;4.18;;;3.13;;
33413;SDS011;60055;41.884;12.534;2023-06-14T02:35:45;6.15;;;3.45;;
33413;SDS011;60055;41.884;12.534;2023-06-14T02:38:11;7.78;;;3.10;;
33413;SDS011;60055;41.884;12.534;2023-06-14T02:40:36;7.28;;;3.17;;
33413;SDS011;60055;41.884;12.534;2023-06-14T02:43:02;4.40;;;3.20;;
33413;SDS011;60055;41.884;12.534;2023-06-14T02:45:27;5.10;;;3.20;;
33413;SDS011;60055;41.884;12.534;2023-06-14T02:47:53;6.15;;;3.08;;
33413;SDS011;60055;41.884;12.534;2023-06-14T02:50:20;8.43;;;3.25;;
33413;SDS011;60055;41.884;12.534;2023-06-14T02:52:46;5.32;;;3.60;;
33413;SDS011;60055;41.884;12.534;2023-06-14T02:55:12;5.25;;;3.25;;
33413;SDS011;60055;41.884;12.534;2023-06-14T02:57:38;4.80;;;3.25;;
33413;SDS011;60055;41.884;12.534;2023-06-14T03:00:03;4.25;;;3.17;;
33413;SDS011;60055;41.884;12.534;2023-06-14T03:02:29;5.45;;;3.00;;
33413;SDS011;60055;41.884;12.534;2023-06-14T03:04:54;4.90;;;3.08;;
33413;SDS011;60055;41.884;12.534;2023-06-14T03:07:20;4.40;;;2.95;;
33413;SDS011;60055;41.884;12.534;2023-06-14T03:09:48;4.40;;;3.17;;
33413;SDS011;60055;41.884;12.534;2023-06-14T03:12:14;5.25;;;3.22;;
33413;SDS011;60055;41.884;12.534;2023-06-14T03:14:40;7.05;;;3.40;;
33413;SDS011;60055;41.884;12.534;2023-06-14T03:17:06;4.25;;;3.33;;
33413;SDS011;60055;41.884;12.534;2023-06-14T03:19:33;6.50;;;4.07;;
33413;SDS011;60055;41.884;12.534;2023-06-14T03:21:58;11.35;;;3.90;;
33413;SDS011;60055;41.884;12.534;2023-06-14T03:24:24;8.93;;;3.80;;
33413;SDS011;60055;41.884;12.534;2023-06-14T03:26:52;7.25;;;3.95;;
33413;SDS011;60055;41.884;12.534;2023-06-14T03:29:18;7.60;;;3.88;;
33413;SDS011;60055;41.884;12.534;2023-06-14T03:32:04;11.20;;;4.32;;
33413;SDS011;60055;41.884;12.534;2023-06-14T03:34:29;7.57;;;4.35;;
33413;SDS011;60055;41.884;12.534;2023-06-14T03:36:55;8.38;;;5.47;;
33413;SDS011;60055;41.884;12.534;2023-06-14T03:39:21;8.85;;;4.75;;
33413;SDS011;60055;41.884;12.534;2023-06-14T03:41:46;6.65;;;4.82;;
33413;SDS011;60055;41.884;12.534;2023-06-14T03:44:14;7.55;;;5.28;;
33413;SDS011;60055;41.884;12.534;2023-06-14T03:46:41;8.30;;;5.53;;
33413;SDS011;60055;41.884;12.534;2023-06-14T03:49:06;9.90;;;5.28;;
33413;SDS011;60055;41.884;12.534;2023-06-14T03:51:32;13.20;;;5.75;;
33413;SDS011;60055;41.884;12.534;2023-06-14T03:54:00;11.80;;;6.10;;
33413;SDS011;60055;41.884;12.534;2023-06-14T03:56:25;14.10;;;5.35;;
33413;SDS011;60055;41.884;12.534;2023-06-14T03:58:52;12.00;;;6.40;;
33413;SDS011;60055;41.884;12.534;2023-06-14T04:01:17;10.90;;;5.78;;
33413;SDS011;60055;41.884;12.534;2023-06-14T04:03:43;9.48;;;6.10;;
33413;SDS011;60055;41.884;12.534;2023-06-14T04:06:08;8.10;;;5.20;;
33413;SDS011;60055;41.884;12.534;2023-06-14T04:08:34;12.40;;;5.40;;
33413;SDS011;60055;41.884;12.534;2023-06-14T04:11:00;11.07;;;5.65;;
33413;SDS011;60055;41.884;12.534;2023-06-14T04:13:26;9.15;;;5.18;;
33413;SDS011;60055;41.884;12.534;2023-06-14T04:15:51;10.10;;;4.82;;
33413;SDS011;60055;41.884;12.534;2023-06-14T04:18:17;10.02;;;4.80;;
33413;SDS011;60055;41.884;12.534;2023-06-14T04:20:44;8.80;;;5.20;;
33413;SDS011;60055;41.884;12.534;2023-06-14T04:23:13;12.02;;;5.00;;
33413;SDS011;60055;41.884;12.534;2023-06-14T04:25:40;10.35;;;5.03;;
33413;SDS011;60055;41.884;12.534;2023-06-14T04:28:10;7.63;;;4.65;;
33413;SDS011;60055;41.884;12.534;2023-06-14T04:30:40;8.15;;;4.80;;
33413;SDS011;60055;41.884;12.534;2023-06-14T04:33:05;7.95;;;4.00;;
33413;SDS011;60055;41.884;12.534;2023-06-14T04:35:31;8.00;;;4.20;;
33413;SDS011;60055;41.884;12.534;2023-06-14T04:37:58;7.03;;;3.80;;
33413;SDS011;60055;41.884;12.534;2023-06-14T04:40:24;8.95;;;4.40;;
33413;SDS011;60055;41.884;12.534;2023-06-14T04:42:49;15.35;;;4.82;;
33413;SDS011;60055;41.884;12.534;2023-06-14T04:45:16;9.02;;;4.07;;
33413;SDS011;60055;41.884;12.534;2023-06-14T04:47:42;8.02;;;5.18;;
33413;SDS011;60055;41.884;12.534;2023-06-14T04:50:08;9.40;;;5.57;;
33413;SDS011;60055;41.884;12.534;2023-06-14T04:52:35;6.53;;;4.00;;
33413;SDS011;60055;41.884;12.534;2023-06-14T04:55:02;17.98;;;9.35;;
33413;SDS011;60055;41.884;12.534;2023-06-14T04:57:28;11.10;;;5.78;;
33413;SDS011;60055;41.884;12.534;2023-06-14T04:59:54;8.82;;;4.25;;
33413;SDS011;60055;41.884;12.534;2023-06-14T05:02:22;7.53;;;3.90;;
33413;SDS011;60055;41.884;12.534;2023-06-14T05:04:49;5.70;;;3.88;;
33413;SDS011;60055;41.884;12.534;2023-06-14T05:07:15;9.32;;;4.30;;
33413;SDS011;60055;41.884;12.534;2023-06-14T05:09:41;5.88;;;4.10;;
33413;SDS011;60055;41.884;12.534;2023-06-14T05:12:06;7.07;;;3.78;;
33413;SDS011;60055;41.884;12.534;2023-06-14T05:14:35;8.88;;;3.80;;
33413;SDS011;60055;41.884;12.534;2023-06-14T05:17:00;9.07;;;3.90;;
33413;SDS011;60055;41.884;12.534;2023-06-14T05:19:27;9.15;;;4.15;;
33413;SDS011;60055;41.884;12.534;2023-06-14T05:21:53;8.07;;;3.78;;
33413;SDS011;60055;41.884;12.534;2023-06-14T05:24:18;10.50;;;4.10;;
33413;SDS011;60055;41.884;12.534;2023-06-14T05:26:44;8.40;;;4.05;;
33413;SDS011;60055;41.884;12.534;2023-06-14T05:29:10;9.05;;;3.63;;
33413;SDS011;60055;41.884;12.534;2023-06-14T05:31:35;9.02;;;3.90;;
33413;SDS011;60055;41.884;12.534;2023-06-14T05:34:02;6.75;;;3.42;;
33413;SDS011;60055;41.884;12.534;2023-06-14T05:36:27;6.60;;;3.65;;
33413;SDS011;60055;41.884;12.534;2023-06-14T05:38:53;4.53;;;2.92;;
33413;SDS011;60055;41.884;12.534;2023-06-14T05:41:28;12.95;;;5.25;;
33413;SDS011;60055;41.884;12.534;2023-06-14T05:43:54;9.27;;;4.05;;
33413;SDS011;60055;41.884;12.534;2023-06-14T05:46:21;9.20;;;4.00;;
33413;SDS011;60055;41.884;12.534;2023-06-14T05:48:51;6.50;;;3.38;;
33413;SDS011;60055;41.884;12.534;2023-06-14T05:51:17;6.93;;;3.40;;
33413;SDS011;60055;41.884;12.534;2023-06-14T05:53:45;8.25;;;4.13;;
33413;SDS011;60055;41.884;12.534;2023-06-14T05:56:12;6.82;;;3.30;;
33413;SDS011;60055;41.884;12.534;2023-06-14T05:58:37;6.13;;;3.20;;
33413;SDS011;60055;41.884;12.534;2023-06-14T06:01:06;9.90;;;3.47;;
33413;SDS011;60055;41.884;12.534;2023-06-14T06:03:32;8.20;;;4.00;;
33413;SDS011;60055;41.884;12.534;2023-06-14T06:06:13;6.15;;;3.60;;
33413;SDS011;60055;41.884;12.534;2023-06-14T06:08:44;5.38;;;3.95;;
33413;SDS011;60055;41.884;12.534;2023-06-14T06:11:10;7.95;;;3.63;;
33413;SDS011;60055;41.884;12.534;2023-06-14T06:13:35;8.95;;;3.28;;
33413;SDS011;60055;41.884;12.534;2023-06-14T06:16:18;8.93;;;3.60;;
33413;SDS011;60055;41.884;12.534;2023-06-14T06:18:52;9.65;;;3.85;;
33413;SDS011;60055;41.884;12.534;2023-06-14T06:21:23;8.90;;;3.40;;
33413;SDS011;60055;41.884;12.534;2023-06-14T06:23:52;7.43;;;3.53;;
33413;SDS011;60055;41.884;12.534;2023-06-14T06:26:18;10.27;;;3.28;;
33413;SDS011;60055;41.884;12.534;2023-06-14T06:28:43;7.13;;;3.40;;
33413;SDS011;60055;41.884;12.534;2023-06-14T06:31:11;9.93;;;3.78;;
33413;SDS011;60055;41.884;12.534;2023-06-14T06:33:46;8.07;;;3.10;;
33413;SDS011;60055;41.884;12.534;2023-06-14T06:36:17;10.82;;;3.10;;
33413;SDS011;60055;41.884;12.534;2023-06-14T06:38:45;10.30;;;3.17;;
33413;SDS011;60055;41.884;12.534;2023-06-14T06:41:18;9.90;;;3.75;;
33413;SDS011;60055;41.884;12.534;2023-06-14T06:43:47;10.95;;;3.10;;
33413;SDS011;60055;41.884;12.534;2023-06-14T06:46:16;11.07;;;3.10;;
33413;SDS011;60055;41.884;12.534;2023-06-14T06:48:56;8.95;;;3.40;;
33413;SDS011;60055;41.884;12.534;2023-06-14T06:51:27;12.00;;;2.78;;
33413;SDS011;60055;41.884;12.534;2023-06-14T06:53:58;11.65;;;3.35;;
33413;SDS011;60055;41.884;12.534;2023-06-14T06:58:55;9.77;;;3.28;;
33413;SDS011;60055;41.884;12.534;2023-06-14T07:01:21;8.70;;;2.88;;
33413;SDS011;60055;41.884;12.534;2023-06-14T07:03:46;9.38;;;2.97;;
33413;SDS011;60055;41.884;12.534;2023-06-14T07:06:12;7.10;;;3.20;;
33413;SDS011;60055;41.884;12.534;2023-06-14T07:08:38;10.85;;;2.72;;
33413;SDS011;60055;41.884;12.534;2023-06-14T07:11:04;8.95;;;2.55;;
33413;SDS011;60055;41.884;12.534;2023-06-14T07:13:33;6.28;;;2.35;;
33413;SDS011;60055;41.884;12.534;2023-06-14T07:15:59;6.93;;;2.60;;
33413;SDS011;60055;41.884;12.534;2023-06-14T07:18:25;9.30;;;2.60;;
33413;SDS011;60055;41.884;12.534;2023-06-14T07:20:51;6.20;;;2.50;;
33413;SDS011;60055;41.884;12.534;2023-06-14T07:23:18;8.18;;;2.60;;
33413;SDS011;60055;41.884;12.534;2023-06-14T07:25:44;4.32;;;2.40;;
33413;SDS011;60055;41.884;12.534;2023-06-14T07:28:09;4.97;;;2.25;;
33413;SDS011;60055;41.884;12.534;2023-06-14T07:30:35;5.18;;;2.33;;
33413;SDS011;60055;41.884;12.534;2023-06-14T07:33:00;7.82;;;2.80;;
33413;SDS011;60055;41.884;12.534;2023-06-14T07:35:26;4.95;;;2.22;;
33413;SDS011;60055;41.884;12.534;2023-06-14T07:37:51;8.07;;;3.20;;
33413;SDS011;60055;41.884;12.534;2023-06-14T07:40:17;6.72;;;2.45;;
33413;SDS011;60055;41.884;12.534;2023-06-14T07:42:43;7.97;;;2.80;;
33413;SDS011;60055;41.884;12.534;2023-06-14T07:45:08;15.88;;;3.08;;
33413;SDS011;60055;41.884;12.534;2023-06-14T07:47:34;5.55;;;2.35;;
33413;SDS011;60055;41.884;12.534;2023-06-14T07:50:00;7.55;;;2.05;;
33413;SDS011;60055;41.884;12.534;2023-06-14T07:52:25;6.22;;;2.75;;
33413;SDS011;60055;41.884;12.534;2023-06-14T07:54:50;9.80;;;2.28;;
33413;SDS011;60055;41.884;12.534;2023-06-14T07:57:16;5.70;;;2.83;;
33413;SDS011;60055;41.884;12.534;2023-06-14T07:59:41;7.65;;;2.83;;
33413;SDS011;60055;41.884;12.534;2023-06-14T08:02:07;6.10;;;2.40;;
33413;SDS011;60055;41.884;12.534;2023-06-14T08:04:32;8.88;;;3.10;;
33413;SDS011;60055;41.884;12.534;2023-06-14T08:06:59;7.78;;;2.80;;
33413;SDS011;60055;41.884;12.534;2023-06-14T08:09:25;10.05;;;2.88;;
33413;SDS011;60055;41.884;12.534;2023-06-14T08:11:52;13.55;;;3.30;;
33413;SDS011;60055;41.884;12.534;2023-06-14T08:14:18;7.20;;;2.90;;
33413;SDS011;60055;41.884;12.534;2023-06-14T08:16:43;7.03;;;2.88;;
33413;SDS011;60055;41.884;12.534;2023-06-14T08:19:09;6.82;;;2.50;;
33413;SDS011;60055;41.884;12.534;2023-06-14T08:21:34;6.72;;;2.80;;
33413;SDS011;60055;41.884;12.534;2023-06-14T08:24:01;8.45;;;2.95;;
33413;SDS011;60055;41.884;12.534;2023-06-14T08:26:27;7.80;;;3.28;;
33413;SDS011;60055;41.884;12.534;2023-06-14T08:28:56;8.68;;;2.70;;
33413;SDS011;60055;41.884;12.534;2023-06-14T08:31:22;5.88;;;2.70;;
33413;SDS011;60055;41.884;12.534;2023-06-14T08:33:47;6.82;;;2.78;;
33413;SDS011;60055;41.884;12.534;2023-06-14T08:36:13;7.78;;;3.55;;
33413;SDS011;60055;41.884;12.534;2023-06-14T08:38:39;7.78;;;3.10;;
33413;SDS011;60055;41.884;12.534;2023-06-14T08:41:04;5.95;;;2.67;;
33413;SDS011;60055;41.884;12.534;2023-06-14T08:43:34;3.90;;;2.30;;
33413;SDS011;60055;41.884;12.534;2023-06-14T08:46:03;7.13;;;2.80;;
33413;SDS011;60055;41.884;12.534;2023-06-14T08:48:29;6.28;;;2.67;;
33413;SDS011;60055;41.884;12.534;2023-06-14T08:51:01;5.38;;;2.55;;
33413;SDS011;60055;41.884;12.534;2023-06-14T08:53:30;5.07;;;2.22;;
33413;SDS011;60055;41.884;12.534;2023-06-14T08:55:57;7.43;;;2.83;;
33413;SDS011;60055;41.884;12.534;2023-06-14T08:58:26;6.97;;;2.17;;
33413;SDS011;60055;41.884;12.534;2023-06-14T09:00:54;5.05;;;2.80;;
33413;SDS011;60055;41.884;12.534;2023-06-14T09:03:21;4.45;;;2.63;;
33413;SDS011;60055;41.884;12.534;2023-06-14T09:05:48;9.70;;;2.75;;
33413;SDS011;60055;41.884;12.534;2023-06-14T09:08:13;8.63;;;2.78;;
33413;SDS011;60055;41.884;12.534;2023-06-14T09:10:39;5.78;;;2.50;;
33413;SDS011;60055;41.884;12.534;2023-06-14T09:13:05;6.43;;;2.58;;
33413;SDS011;60055;41.884;12.534;2023-06-14T09:15:31;8.13;;;2.20;;
33413;SDS011;60055;41.884;12.534;2023-06-14T09:17:57;6.70;;;2.70;;
33413;SDS011;60055;41.884;12.534;2023-06-14T09:20:23;5.80;;;2.50;;
33413;SDS011;60055;41.884;12.534;2023-06-14T09:22:49;5.03;;;2.45;;
33413;SDS011;60055;41.884;12.534;2023-06-14T09:25:15;6.65;;;2.38;;
33413;SDS011;60055;41.884;12.534;2023-06-14T09:27:41;6.10;;;2.35;;
33413;SDS011;60055;41.884;12.534;2023-06-14T09:30:08;5.53;;;2.60;;
33413;SDS011;60055;41.884;12.534;2023-06-14T09:32:38;5.43;;;2.40;;
33413;SDS011;60055;41.884;12.534;2023-06-14T09:35:07;4.10;;;2.28;;
33413;SDS011;60055;41.884;12.534;2023-06-14T09:37:33;5.78;;;2.22;;
33413;SDS011;60055;41.884;12.534;2023-06-14T09:40:00;9.77;;;2.70;;
33413;SDS011;60055;41.884;12.534;2023-06-14T09:42:25;5.63;;;2.45;;
33413;SDS011;60055;41.884;12.534;2023-06-14T09:44:53;4.80;;;2.50;;
33413;SDS011;60055;41.884;12.534;2023-06-14T09:47:19;5.57;;;2.75;;
33413;SDS011;60055;41.884;12.534;2023-06-14T09:49:46;6.43;;;2.75;;
33413;SDS011;60055;41.884;12.534;2023-06-14T09:52:16;8.43;;;3.30;;
33413;SDS011;60055;41.884;12.534;2023-06-14T09:54:43;7.43;;;2.78;;
33413;SDS011;60055;41.884;12.534;2023-06-14T09:57:15;8.77;;;2.47;;
33413;SDS011;60055;41.884;12.534;2023-06-14T09:59:45;4.53;;;2.10;;
33413;SDS011;60055;41.884;12.534;2023-06-14T10:02:22;6.13;;;2.20;;
33413;SDS011;60055;41.884;12.534;2023-06-14T10:05:12;12.20;;;6.55;;
33413;SDS011;60055;41.884;12.534;2023-06-14T10:07:53;8.23;;;4.15;;
33413;SDS011;60055;41.884;12.534;2023-06-14T10:10:25;6.05;;;2.30;;
33413;SDS011;60055;41.884;12.534;2023-06-14T10:12:50;6.97;;;2.58;;
33413;SDS011;60055;41.884;12.534;2023-06-14T10:15:22;6.45;;;2.33;;
33413;SDS011;60055;41.884;12.534;2023-06-14T10:18:02;5.18;;;2.30;;
33413;SDS011;60055;41.884;12.534;2023-06-14T10:23:33;7.80;;;2.47;;
33413;SDS011;60055;41.884;12.534;2023-06-14T10:26:02;12.13;;;2.75;;
33413;SDS011;60055;41.884;12.534;2023-06-14T10:28:28;8.93;;;2.70;;
33413;SDS011;60055;41.884;12.534;2023-06-14T10:31:02;5.07;;;2.53;;
33413;SDS011;60055;41.884;12.534;2023-06-14T10:33:48;4.30;;;2.33;;
33413;SDS011;60055;41.884;12.534;2023-06-14T10:36:30;6.28;;;2.90;;
33413;SDS011;60055;41.884;12.534;2023-06-14T10:41:26;6.97;;;3.35;;
33413;SDS011;60055;41.884;12.534;2023-06-14T10:44:10;7.07;;;3.10;;
33413;SDS011;60055;41.884;12.534;2023-06-14T10:46:35;6.40;;;3.15;;
33413;SDS011;60055;41.884;12.534;2023-06-14T10:49:01;7.00;;;3.13;;
33413;SDS011;60055;41.884;12.534;2023-06-14T10:51:29;8.23;;;2.80;;
33413;SDS011;60055;41.884;12.534;2023-06-14T10:53:55;7.25;;;3.08;;
33413;SDS011;60055;41.884;12.534;2023-06-14T10:56:29;5.70;;;3.10;;
33413;SDS011;60055;41.884;12.534;2023-06-14T10:58:57;17.50;;;4.88;;
33413;SDS011;60055;41.884;12.534;2023-06-14T11:01:49;21.50;;;7.22;;
33413;SDS011;60055;41.884;12.534;2023-06-14T11:04:32;15.05;;;5.95;;
33413;SDS011;60055;41.884;12.534;2023-06-14T11:12:40;11.60;;;4.53;;
33413;SDS011;60055;41.884;12.534;2023-06-14T11:15:07;6.63;;;3.53;;
33413;SDS011;60055;41.884;12.534;2023-06-14T11:17:33;6.07;;;2.75;;
33413;SDS011;60055;41.884;12.534;2023-06-14T11:20:11;5.45;;;2.88;;
33413;SDS011;60055;41.884;12.534;2023-06-14T11:22:41;6.53;;;2.70;;
33413;SDS011;60055;41.884;12.534;2023-06-14T11:25:11;5.07;;;2.78;;
33413;SDS011;60055;41.884;12.534;2023-06-14T11:27:36;9.25;;;2.60;;
33413;SDS011;60055;41.884;12.534;2023-06-14T11:30:02;5.15;;;2.50;;
33413;SDS011;60055;41.884;12.534;2023-06-14T11:32:28;5.07;;;2.42;;
33413;SDS011;60055;41.884;12.534;2023-06-14T11:34:53;7.50;;;3.80;;
33413;SDS011;60055;41.884;12.534;2023-06-14T11:37:19;5.35;;;2.38;;
33413;SDS011;60055;41.884;12.534;2023-06-14T11:39:44;5.32;;;2.78;;
33413;SDS011;60055;41.884;12.534;2023-06-14T11:42:16;7.90;;;3.10;;
33413;SDS011;60055;41.884;12.534;2023-06-14T11:44:43;11.98;;;3.85;;
33413;SDS011;60055;41.884;12.534;2023-06-14T11:47:11;10.75;;;3.65;;
33413;SDS011;60055;41.884;12.534;2023-06-14T11:49:36;11.40;;;4.07;;
33413;SDS011;60055;41.884;12.534;2023-06-14T11:52:02;11.57;;;4.50;;
33413;SDS011;60055;41.884;12.534;2023-06-14T11:54:27;11.27;;;4.00;;
33413;SDS011;60055;41.884;12.534;2023-06-14T11:56:53;9.40;;;3.97;;
33413;SDS011;60055;41.884;12.534;2023-06-14T11:59:20;13.45;;;4.60;;
33413;SDS011;60055;41.884;12.534;2023-06-14T12:01:47;8.73;;;3.40;;
33413;SDS011;60055;41.884;12.534;2023-06-14T12:04:12;8.45;;;3.75;;
33413;SDS011;60055;41.884;12.534;2023-06-14T12:06:38;7.47;;;3.83;;
33413;SDS011;60055;41.884;12.534;2023-06-14T12:09:04;6.50;;;3.30;;
33413;SDS011;60055;41.884;12.534;2023-06-14T12:11:35;7.28;;;3.25;;
33413;SDS011;60055;41.884;12.534;2023-06-14T12:14:04;4.75;;;2.70;;
33413;SDS011;60055;41.884;12.534;2023-06-14T12:16:33;6.88;;;3.00;;
33413;SDS011;60055;41.884;12.534;2023-06-14T12:21:39;6.38;;;2.40;;
33413;SDS011;60055;41.884;12.534;2023-06-14T12:24:07;4.00;;;2.50;;
33413;SDS011;60055;41.884;12.534;2023-06-14T12:26:33;4.30;;;2.60;;
33413;SDS011;60055;41.884;12.534;2023-06-14T12:29:05;5.20;;;2.40;;
33413;SDS011;60055;41.884;12.534;2023-06-14T12:31:31;6.72;;;2.75;;
33413;SDS011;60055;41.884;12.534;2023-06-14T12:33:56;4.95;;;2.67;;
33413;SDS011;60055;41.884;12.534;2023-06-14T12:36:22;4.47;;;2.38;;
33413;SDS011;60055;41.884;12.534;2023-06-14T12:38:47;7.00;;;2.75;;
33413;SDS011;60055;41.884;12.534;2023-06-14T12:41:13;8.00;;;2.80;;
33413;SDS011;60055;41.884;12.534;2023-06-14T12:43:39;3.60;;;2.33;;
33413;SDS011;60055;41.884;12.534;2023-06-14T12:46:05;3.70;;;2.47;;
33413;SDS011;60055;41.884;12.534;2023-06-14T12:48:44;3.50;;;2.45;;
33413;SDS011;60055;41.884;12.534;2023-06-14T12:51:09;5.88;;;2.83;;
33413;SDS011;60055;41.884;12.534;2023-06-14T12:53:35;7.03;;;3.20;;
33413;SDS011;60055;41.884;12.534;2023-06-14T12:56:00;5.20;;;2.65;;
33413;SDS011;60055;41.884;12.534;2023-06-14T12:58:25;8.98;;;3.10;;
33413;SDS011;60055;41.884;12.534;2023-06-14T13:00:53;6.45;;;3.63;;
33413;SDS011;60055;41.884;12.534;2023-06-14T13:03:26;6.72;;;3.42;;
33413;SDS011;60055;41.884;12.534;2023-06-14T13:05:52;7.32;;;3.70;;
33413;SDS011;60055;41.884;12.534;2023-06-14T13:08:17;9.63;;;3.72;;
33413;SDS011;60055;41.884;12.534;2023-06-14T13:10:42;6.90;;;3.63;;
33413;SDS011;60055;41.884;12.534;2023-06-14T13:13:08;7.78;;;3.72;;
33413;SDS011;60055;41.884;12.534;2023-06-14T13:15:33;6.05;;;3.38;;
33413;SDS011;60055;41.884;12.534;2023-06-14T13:17:59;6.63;;;3.28;;
33413;SDS011;60055;41.884;12.534;2023-06-14T13:20:25;9.15;;;3.53;;
33413;SDS011;60055;41.884;12.534;2023-06-14T13:23:00;8.23;;;3.42;;
33413;SDS011;60055;41.884;12.534;2023-06-14T13:25:28;8.00;;;3.70;;
33413;SDS011;60055;41.884;12.534;2023-06-14T13:27:54;6.18;;;3.83;;
33413;SDS011;60055;41.884;12.534;2023-06-14T13:30:19;6.60;;;3.72;;
33413;SDS011;60055;41.884;12.534;2023-06-14T13:32:45;11.20;;;3.95;;
33413;SDS011;60055;41.884;12.534;2023-06-14T13:35:10;7.68;;;3.63;;
33413;SDS011;60055;41.884;12.534;2023-06-14T13:37:36;5.43;;;3.50;;
33413;SDS011;60055;41.884;12.534;2023-06-14T13:40:05;13.43;;;9.05;;
33413;SDS011;60055;41.884;12.534;2023-06-14T13:42:31;10.10;;;5.38;;
33413;SDS011;60055;41.884;12.534;2023-06-14T13:44:57;10.23;;;4.93;;
33413;SDS011;60055;41.884;12.534;2023-06-14T13:47:23;8.65;;;3.92;;
33413;SDS011;60055;41.884;12.534;2023-06-14T13:49:49;14.48;;;4.82;;
33413;SDS011;60055;41.884;12.534;2023-06-14T13:52:14;14.52;;;5.32;;
33413;SDS011;60055;41.884;12.534;2023-06-14T13:54:40;7.88;;;4.60;;
33413;SDS011;60055;41.884;12.534;2023-06-14T13:57:07;9.13;;;4.70;;
33413;SDS011;60055;41.884;12.534;2023-06-14T13:59:32;9.43;;;4.30;;
33413;SDS011;60055;41.884;12.534;2023-06-14T14:01:58;6.07;;;3.35;;
33413;SDS011;60055;41.884;12.534;2023-06-14T14:04:23;7.22;;;3.63;;
33413;SDS011;60055;41.884;12.534;2023-06-14T14:06:49;9.13;;;4.97;;
33413;SDS011;60055;41.884;12.534;2023-06-14T14:09:15;7.38;;;4.10;;
33413;SDS011;60055;41.884;12.534;2023-06-14T14:11:40;7.78;;;4.28;;
33413;SDS011;60055;41.884;12.534;2023-06-14T14:14:07;6.28;;;3.63;;
33413;SDS011;60055;41.884;12.534;2023-06-14T14:16:33;7.43;;;4.18;;
33413;SDS011;60055;41.884;12.534;2023-06-14T14:18:59;7.57;;;4.43;;
33413;SDS011;60055;41.884;12.534;2023-06-14T14:21:25;7.97;;;4.78;;
33413;SDS011;60055;41.884;12.534;2023-06-14T14:23:50;8.63;;;4.50;;
33413;SDS011;60055;41.884;12.534;2023-06-14T14:26:16;7.20;;;3.83;;
33413;SDS011;60055;41.884;12.534;2023-06-14T14:28:42;6.93;;;4.32;;
33413;SDS011;60055;41.884;12.534;2023-06-14T14:31:07;7.45;;;4.10;;
33413;SDS011;60055;41.884;12.534;2023-06-14T14:33:32;6.05;;;3.53;;
33413;SDS011;60055;41.884;12.534;2023-06-14T14:35:59;7.68;;;3.38;;
33413;SDS011;60055;41.884;12.534;2023-06-14T14:38:28;6.18;;;3.45;;
33413;SDS011;60055;41.884;12.534;2023-06-14T14:40:54;7.18;;;3.50;;
33413;SDS011;60055;41.884;12.534;2023-06-14T14:43:20;6.15;;;3.45;;
33413;SDS011;60055;41.884;12.534;2023-06-14T14:45:49;7.68;;;3.90;;
33413;SDS011;60055;41.884;12.534;2023-06-14T14:48:14;6.72;;;3.78;;
33413;SDS011;60055;41.884;12.534;2023-06-14T14:50:40;5.53;;;3.75;;
33413;SDS011;60055;41.884;12.534;2023-06-14T14:53:17;9.82;;;3.75;;